Terminal Aerodrome Forecast
Issued by NWS

Home | Current Version | Previous Version | Text Only | Print | Product List | Glossary On
Versions: 1 2 3 4 5 6 7 8 9 10 11 12 13 14 15 16 17 18 19 20 21 22 23 24 25 26 27 28
000
FTUS46 KPDT 011700
TAFALW
TAF
KALW 011735Z 0118/0218 20007KT 6SM BR OVC015
     FM012000 20008KT 6SM -RA BR SCT008 OVC015
     FM020500 19008KT 6SM BR SCT010 OVC020
     FM020900 18006KT 5SM BR OVC012
     FM021500 16005KT P6SM SCT015 BKN025=

USA.gov is the U.S. government's official web portal to all federal, state and local government web resources and services.